createdAt,value
2022-10-17T00:01:07.986Z,19.57
2022-10-17T00:03:38.107Z,19.54
2022-10-17T00:06:12.526Z,19.59
2022-10-17T00:08:42.793Z,19.53
2022-10-17T00:11:17.589Z,19.52
2022-10-17T00:13:49.631Z,19.50
2022-10-17T00:16:27.009Z,19.48
2022-10-17T00:18:55.367Z,19.50
2022-10-17T00:21:24.924Z,19.49
2022-10-17T00:23:53.744Z,19.46
2022-10-17T00:26:22.263Z,19.46
2022-10-17T00:28:52.815Z,19.51
2022-10-17T00:31:23.378Z,19.51
2022-10-17T00:33:52.177Z,19.48
2022-10-17T00:36:22.492Z,19.45
2022-10-17T00:38:58.625Z,19.43
2022-10-17T00:41:31.210Z,19.38
2022-10-17T00:44:03.117Z,19.38
2022-10-17T00:46:34.272Z,19.37
2022-10-17T00:49:10.140Z,19.35
2022-10-17T00:51:49.193Z,19.34
2022-10-17T00:54:20.521Z,19.35
2022-10-17T00:56:49.093Z,19.38
2022-10-17T00:59:20.842Z,19.44
2022-10-17T01:02:02.229Z,19.48
2022-10-17T01:04:30.018Z,19.52
2022-10-17T01:06:58.100Z,19.56
2022-10-17T01:09:27.486Z,19.58
2022-10-17T01:12:41.227Z,19.63
2022-10-17T01:15:17.161Z,19.66
2022-10-17T01:18:31.882Z,19.66
2022-10-17T01:21:12.397Z,19.82
2022-10-17T01:24:21.414Z,19.73
2022-10-17T01:27:10.490Z,19.68
2022-10-17T01:29:54.966Z,19.63
2022-10-17T01:32:36.260Z,19.58
2022-10-17T01:35:23.061Z,19.52
2022-10-17T01:38:36.903Z,19.45
2022-10-17T01:41:33.389Z,19.46
2022-10-17T01:44:35.448Z,19.35
2022-10-17T01:47:16.050Z,19.38
2022-10-17T01:49:46.625Z,19.38
2022-10-17T01:52:26.812Z,19.39
2022-10-17T01:55:04.571Z,19.41
2022-10-17T01:57:46.330Z,19.40
2022-10-17T02:00:24.274Z,19.39
2022-10-17T02:03:00.336Z,19.36
2022-10-17T02:05:41.488Z,19.39
2022-10-17T02:08:11.725Z,19.40
2022-10-17T02:10:55.088Z,19.40
2022-10-17T02:14:08.639Z,19.48
2022-10-17T02:16:44.673Z,19.55
2022-10-17T02:19:39.485Z,19.60
2022-10-17T02:22:10.037Z,19.61
2022-10-17T02:24:55.151Z,19.61
2022-10-17T02:27:38.259Z,19.63
2022-10-17T02:30:46.107Z,19.64
2022-10-17T02:33:23.111Z,19.62
2022-10-17T02:35:57.927Z,19.61
2022-10-17T02:38:29.416Z,19.60
2022-10-17T02:40:57.568Z,19.59
2022-10-17T02:43:26.073Z,19.57
2022-10-17T02:45:54.585Z,19.56
2022-10-17T02:48:37.139Z,19.57
2022-10-17T02:51:44.134Z,19.57
2022-10-17T02:54:30.337Z,19.56
2022-10-17T02:57:25.056Z,19.54
2022-10-17T02:59:53.588Z,19.50
2022-10-17T03:02:21.461Z,19.44
2022-10-17T03:04:49.336Z,19.43
2022-10-17T03:07:17.193Z,19.40
2022-10-17T03:09:45.219Z,19.36
2022-10-17T03:12:13.136Z,19.35
2022-10-17T03:14:40.991Z,19.31
2022-10-17T03:17:09.390Z,19.30
2022-10-17T03:19:37.236Z,19.28
2022-10-17T03:22:05.068Z,19.28
2022-10-17T03:24:34.889Z,19.26
2022-10-17T03:27:02.715Z,19.25
2022-10-17T03:29:31.076Z,19.24
2022-10-17T03:31:59.335Z,19.24
2022-10-17T03:34:27.157Z,19.21
2022-10-17T03:36:55.362Z,19.21
2022-10-17T03:39:24.078Z,19.20
2022-10-17T03:41:52.024Z,19.20
2022-10-17T03:44:19.831Z,19.22
2022-10-17T03:46:47.722Z,19.22
2022-10-17T03:49:16.077Z,19.21
2022-10-17T03:51:44.023Z,19.15
2022-10-17T03:54:15.097Z,19.06
2022-10-17T03:56:44.003Z,18.99
2022-10-17T03:59:15.997Z,18.97
2022-10-17T04:01:50.524Z,18.93
2022-10-17T04:04:19.468Z,18.91
2022-10-17T04:06:47.358Z,18.87
2022-10-17T04:09:15.846Z,18.84
2022-10-17T04:11:53.201Z,18.81
2022-10-17T04:14:22.363Z,18.77
2022-10-17T04:16:50.246Z,18.73
2022-10-17T04:19:21.474Z,18.72
2022-10-17T04:21:50.768Z,18.71
2022-10-17T04:24:20.136Z,18.66
2022-10-17T04:26:59.927Z,18.65
2022-10-17T04:29:30.579Z,18.66
2022-10-17T04:32:06.933Z,18.63
2022-10-17T04:34:50.169Z,18.65
2022-10-17T04:37:20.252Z,18.66
2022-10-17T04:39:50.615Z,18.68
2022-10-17T04:42:18.421Z,18.70
2022-10-17T04:44:46.919Z,18.69
2022-10-17T04:47:17.405Z,18.69
2022-10-17T04:49:45.546Z,18.70
2022-10-17T04:52:15.175Z,18.77
2022-10-17T04:55:00.688Z,18.81
2022-10-17T04:57:28.522Z,18.83
2022-10-17T05:00:05.673Z,18.84
2022-10-17T05:02:52.143Z,18.86
2022-10-17T05:05:21.031Z,18.87
2022-10-17T05:07:52.150Z,18.86
2022-10-17T05:10:23.664Z,18.87
2022-10-17T05:12:53.551Z,18.88
2022-10-17T05:15:24.348Z,18.88
2022-10-17T05:17:57.843Z,18.89
2022-10-17T05:20:28.297Z,18.85
2022-10-17T05:22:58.471Z,18.86
2022-10-17T05:25:29.266Z,18.87
2022-10-17T05:27:57.102Z,18.86
2022-10-17T05:30:25.068Z,18.84
2022-10-17T05:32:58.031Z,18.81
2022-10-17T05:35:25.976Z,18.75
2022-10-17T05:37:54.990Z,18.73
2022-10-17T05:40:25.433Z,18.76
2022-10-17T05:42:54.908Z,18.74
2022-10-17T05:45:23.907Z,18.78
2022-10-17T05:47:52.288Z,18.75
2022-10-17T05:50:22.126Z,18.77
2022-10-17T05:53:16.805Z,18.77
2022-10-17T05:55:57.870Z,18.78
2022-10-17T06:01:27.544Z,18.78
2022-10-17T06:03:55.369Z,18.78
2022-10-17T06:06:23.493Z,18.80
2022-10-17T06:08:52.178Z,18.81
2022-10-17T06:11:25.392Z,18.85
2022-10-17T06:13:53.214Z,18.85
2022-10-17T06:16:25.389Z,18.87
2022-10-17T06:18:53.220Z,18.87
2022-10-17T06:21:30.162Z,18.88
2022-10-17T06:24:06.177Z,18.87
2022-10-17T06:26:36.949Z,18.79
2022-10-17T06:29:08.053Z,18.74
2022-10-17T06:31:48.692Z,18.75
2022-10-17T06:34:17.121Z,18.78
2022-10-17T06:36:47.299Z,18.80
2022-10-17T06:39:15.622Z,18.82
2022-10-17T06:42:09.376Z,18.85
2022-10-17T06:44:47.315Z,18.84
2022-10-17T06:47:38.301Z,18.85
2022-10-17T06:50:32.021Z,18.84
2022-10-17T06:53:20.070Z,18.84
2022-10-17T06:56:14.442Z,18.84
2022-10-17T06:58:59.218Z,18.85
2022-10-17T07:01:32.592Z,18.87
2022-10-17T07:04:02.073Z,18.89
2022-10-17T07:06:32.432Z,18.92
2022-10-17T07:09:07.067Z,18.98
2022-10-17T07:11:37.499Z,19.04
2022-10-17T07:14:05.336Z,19.10
2022-10-17T07:16:35.029Z,19.15
2022-10-17T07:19:19.373Z,19.23
2022-10-17T07:21:47.636Z,19.27
2022-10-17T07:24:16.682Z,19.31
2022-10-17T07:26:48.946Z,19.39
2022-10-17T07:29:17.049Z,19.42
2022-10-17T07:31:59.324Z,19.47
2022-10-17T07:34:31.201Z,19.52
2022-10-17T07:36:58.972Z,19.58
2022-10-17T07:39:26.880Z,19.65
2022-10-17T07:41:56.016Z,19.70
2022-10-17T07:44:25.118Z,19.76
2022-10-17T07:46:54.893Z,19.81
2022-10-17T07:49:22.894Z,19.84
2022-10-17T07:51:50.920Z,19.89
2022-10-17T07:54:18.755Z,19.92
2022-10-17T07:56:50.585Z,19.98
2022-10-17T07:59:19.727Z,20.02
2022-10-17T08:01:47.629Z,20.09
2022-10-17T08:04:16.871Z,20.13
2022-10-17T08:06:44.713Z,20.21
2022-10-17T08:09:12.611Z,20.26
2022-10-17T08:11:40.456Z,20.32
2022-10-17T08:14:08.289Z,20.36
2022-10-17T08:16:36.356Z,20.40
2022-10-17T08:19:04.881Z,20.45
2022-10-17T08:21:32.733Z,20.51
2022-10-17T08:24:02.823Z,20.56
2022-10-17T08:26:30.826Z,20.60
2022-10-17T08:28:58.752Z,20.67
2022-10-17T08:31:27.398Z,20.72
2022-10-17T08:33:58.064Z,20.79
2022-10-17T08:36:25.878Z,20.84
2022-10-17T08:38:53.656Z,20.89
2022-10-17T08:41:46.085Z,20.94
2022-10-17T08:44:48.426Z,20.99
2022-10-17T08:47:29.411Z,21.03
2022-10-17T08:50:02.185Z,21.04
2022-10-17T08:52:55.782Z,21.09
2022-10-17T08:55:40.006Z,21.17
2022-10-17T08:58:33.334Z,21.21
2022-10-17T09:01:29.610Z,21.27
2022-10-17T09:07:36.812Z,21.38
2022-10-17T09:10:17.444Z,21.42
2022-10-17T09:13:09.920Z,21.43
2022-10-17T09:16:27.312Z,21.48
2022-10-17T09:19:08.768Z,21.55
2022-10-17T09:21:52.205Z,21.56
2022-10-17T09:24:33.677Z,21.64
2022-10-17T09:27:02.286Z,21.68
2022-10-17T09:29:35.460Z,21.70
2022-10-17T09:32:21.040Z,21.76
2022-10-17T09:34:49.420Z,21.82
2022-10-17T09:37:18.521Z,21.87
2022-10-17T09:39:46.669Z,21.94
2022-10-17T09:42:21.466Z,22.00
2022-10-17T09:45:16.668Z,22.07
2022-10-17T09:47:57.583Z,22.15
2022-10-17T09:50:31.401Z,22.22
2022-10-17T09:53:36.065Z,22.26
2022-10-17T09:56:11.833Z,22.36
2022-10-17T09:58:48.466Z,22.42
2022-10-17T10:01:31.140Z,22.50
2022-10-17T10:04:12.532Z,22.54
2022-10-17T10:07:00.413Z,22.59
2022-10-17T10:09:36.845Z,22.69
2022-10-17T10:12:22.880Z,22.77
2022-10-17T10:14:54.621Z,22.86
2022-10-17T10:17:44.427Z,22.92
2022-10-17T10:21:11.085Z,22.99
2022-10-17T10:23:44.867Z,23.04
2022-10-17T10:26:25.768Z,23.05
2022-10-17T10:28:59.044Z,23.08
2022-10-17T10:31:37.792Z,23.15
2022-10-17T10:34:20.569Z,23.16
2022-10-17T10:36:59.538Z,23.22
2022-10-17T10:39:55.084Z,23.22
2022-10-17T10:42:36.952Z,23.28
2022-10-17T10:45:29.245Z,23.32
2022-10-17T10:48:16.522Z,23.44
2022-10-17T10:50:57.472Z,23.45
2022-10-17T10:53:35.439Z,23.51
2022-10-17T10:56:22.978Z,23.57
2022-10-17T10:59:13.351Z,23.63
2022-10-17T11:02:16.608Z,23.67
2022-10-17T11:05:05.892Z,23.76
2022-10-17T11:07:46.849Z,23.77
2022-10-17T11:10:29.701Z,23.82
2022-10-17T11:13:19.332Z,23.81
2022-10-17T11:15:58.159Z,23.89
2022-10-17T11:18:52.590Z,23.96
2022-10-17T11:22:00.659Z,24.01
2022-10-17T11:24:43.115Z,24.08
2022-10-17T11:27:11.154Z,24.11
2022-10-17T11:29:42.225Z,24.16
2022-10-17T11:32:42.896Z,24.26
2022-10-17T11:35:36.784Z,24.35
2022-10-17T11:38:36.289Z,24.58
2022-10-17T11:41:05.912Z,24.44
2022-10-17T11:43:54.206Z,24.47
2022-10-17T11:46:26.134Z,24.56
2022-10-17T11:49:20.099Z,24.62
2022-10-17T11:52:51.321Z,24.66
2022-10-17T11:55:20.142Z,24.82
2022-10-17T11:58:32.711Z,24.86
2022-10-17T12:01:33.821Z,24.93
2022-10-17T12:04:20.018Z,24.95
2022-10-17T12:07:30.266Z,25.06
2022-10-17T12:10:31.398Z,24.97
2022-10-17T12:13:28.634Z,24.97
2022-10-17T12:16:36.987Z,25.03
2022-10-17T12:19:06.533Z,24.98
2022-10-17T12:21:55.876Z,25.06
2022-10-17T12:25:01.550Z,25.11
2022-10-17T12:27:48.518Z,25.21
2022-10-17T12:30:25.224Z,25.24
2022-10-17T12:33:22.452Z,25.24
2022-10-17T12:36:11.772Z,25.33
2022-10-17T12:38:39.610Z,25.08
2022-10-17T12:41:07.593Z,25.23
2022-10-17T12:47:04.020Z,25.32
2022-10-17T12:49:53.125Z,25.23
2022-10-17T12:52:32.898Z,25.32
2022-10-17T12:55:19.300Z,25.47
2022-10-17T12:58:10.885Z,25.48
2022-10-17T13:01:11.787Z,25.62
2022-10-17T13:03:46.152Z,25.72
2022-10-17T13:06:26.982Z,25.66
2022-10-17T13:09:17.712Z,25.72
2022-10-17T13:11:47.018Z,25.70
2022-10-17T13:14:19.791Z,25.59
2022-10-17T13:17:10.163Z,25.65
2022-10-17T13:19:45.153Z,25.52
2022-10-17T13:22:20.439Z,25.67
2022-10-17T13:24:50.588Z,25.58
2022-10-17T13:27:29.707Z,25.71
2022-10-17T13:30:01.460Z,25.48
2022-10-17T13:32:39.782Z,25.78
2022-10-17T13:35:24.410Z,25.83
2022-10-17T13:37:54.168Z,25.87
2022-10-17T13:40:49.528Z,25.88
2022-10-17T13:43:26.208Z,26.03
2022-10-17T13:46:38.050Z,26.10
2022-10-17T13:49:31.625Z,25.98
2022-10-17T13:52:04.820Z,26.10
2022-10-17T13:54:41.898Z,26.07
2022-10-17T13:57:23.163Z,26.16
2022-10-17T14:00:01.706Z,26.19
2022-10-17T14:02:41.893Z,26.11
2022-10-17T14:05:20.043Z,26.18
2022-10-17T14:08:21.759Z,26.19
2022-10-17T14:10:48.749Z,26.21
2022-10-17T14:13:35.926Z,26.13
2022-10-17T14:16:04.782Z,26.29
2022-10-17T14:18:36.873Z,26.39
2022-10-17T14:24:26.685Z,26.62
2022-10-17T14:26:59.149Z,26.75
2022-10-17T14:29:50.097Z,26.90
2022-10-17T14:32:18.610Z,27.00
2022-10-17T14:34:47.267Z,27.07
2022-10-17T14:37:46.332Z,27.17
2022-10-17T14:40:27.421Z,27.10
2022-10-17T14:42:59.208Z,27.11
2022-10-17T14:45:35.215Z,27.02
2022-10-17T14:48:22.478Z,27.10
2022-10-17T14:51:09.688Z,27.18
2022-10-17T14:53:39.620Z,27.17
2022-10-17T14:56:35.246Z,27.14
2022-10-17T14:59:07.562Z,27.19
2022-10-17T15:01:38.976Z,27.18
2022-10-17T15:04:10.777Z,27.09
2022-10-17T15:06:40.611Z,27.10
2022-10-17T15:09:10.152Z,27.13
2022-10-17T15:11:38.742Z,27.16
2022-10-17T15:14:06.577Z,27.20
2022-10-17T15:16:35.243Z,27.19
2022-10-17T15:19:03.087Z,27.19
2022-10-17T15:21:40.540Z,27.18
2022-10-17T15:24:10.408Z,27.14
2022-10-17T15:26:38.784Z,27.02
2022-10-17T15:29:07.646Z,27.02
2022-10-17T15:31:35.997Z,26.94
2022-10-17T15:34:03.822Z,26.81
2022-10-17T15:36:41.539Z,26.72
2022-10-17T15:39:10.901Z,26.39
2022-10-17T15:41:38.763Z,26.39
2022-10-17T15:44:06.709Z,26.36
2022-10-17T15:46:35.607Z,26.27
2022-10-17T15:49:09.300Z,26.12
2022-10-17T15:51:37.536Z,26.17
2022-10-17T15:54:06.338Z,26.06
2022-10-17T15:56:43.202Z,26.02
2022-10-17T15:59:22.461Z,25.98
2022-10-17T16:01:50.511Z,25.92
2022-10-17T16:04:18.952Z,25.86
2022-10-17T16:06:49.622Z,25.78
2022-10-17T16:09:25.443Z,25.70
2022-10-17T16:12:00.665Z,25.61
2022-10-17T16:14:35.376Z,25.52
2022-10-17T16:17:03.404Z,25.43
2022-10-17T16:19:42.682Z,25.34
2022-10-17T16:22:38.548Z,25.25
2022-10-17T16:25:21.574Z,25.17
2022-10-17T16:27:57.136Z,25.07
2022-10-17T16:30:29.688Z,24.99
2022-10-17T16:32:59.596Z,24.92
2022-10-17T16:35:34.841Z,24.81
2022-10-17T16:38:08.602Z,24.64
2022-10-17T16:40:41.002Z,24.55
2022-10-17T16:43:14.703Z,24.49
2022-10-17T16:45:43.364Z,24.37
2022-10-17T16:48:15.177Z,24.24
2022-10-17T16:50:48.792Z,24.15
2022-10-17T16:53:27.118Z,24.08
2022-10-17T16:56:05.262Z,23.97
2022-10-17T16:58:35.591Z,23.87
2022-10-17T17:01:28.405Z,23.80
2022-10-17T17:04:00.787Z,23.74
2022-10-17T17:06:31.879Z,23.62
2022-10-17T17:09:07.966Z,23.53
2022-10-17T17:11:41.895Z,23.46
2022-10-17T17:14:14.125Z,23.41
2022-10-17T17:16:43.381Z,23.37
2022-10-17T17:19:16.966Z,23.30
2022-10-17T17:21:50.078Z,23.24
2022-10-17T17:24:21.161Z,23.13
2022-10-17T17:26:54.791Z,23.06
2022-10-17T17:29:24.556Z,23.00
2022-10-17T17:31:52.532Z,22.95
2022-10-17T17:34:20.370Z,22.94
2022-10-17T17:36:48.170Z,22.93
2022-10-17T17:39:16.841Z,22.88
2022-10-17T17:41:45.768Z,22.82
2022-10-17T17:44:16.713Z,22.78
2022-10-17T17:46:45.707Z,22.73
2022-10-17T17:49:14.177Z,22.70
2022-10-17T17:51:46.076Z,22.68
2022-10-17T17:54:15.205Z,22.64
2022-10-17T17:56:43.106Z,22.59
2022-10-17T17:59:13.469Z,22.55
2022-10-17T18:01:41.665Z,22.51
2022-10-17T18:04:09.932Z,22.44
2022-10-17T18:06:38.873Z,22.41
2022-10-17T18:09:08.215Z,22.33
2022-10-17T18:11:37.496Z,22.31
2022-10-17T18:14:08.441Z,22.29
2022-10-17T18:16:37.655Z,22.25
2022-10-17T18:19:09.109Z,22.21
2022-10-17T18:21:37.895Z,22.17
2022-10-17T18:24:06.970Z,22.12
2022-10-17T18:26:35.073Z,22.09
2022-10-17T18:29:03.826Z,22.08
2022-10-17T18:31:37.467Z,22.08
2022-10-17T18:34:06.780Z,22.09
2022-10-17T18:36:35.577Z,22.10
2022-10-17T18:39:05.223Z,22.09
2022-10-17T18:41:33.745Z,22.07
2022-10-17T18:44:03.119Z,22.06
2022-10-17T18:46:41.015Z,22.04
2022-10-17T18:49:15.778Z,22.01
2022-10-17T18:51:43.602Z,21.98
2022-10-17T18:54:20.519Z,21.94
2022-10-17T18:56:52.142Z,21.88
2022-10-17T18:59:20.970Z,21.84
2022-10-17T19:01:48.944Z,21.81
2022-10-17T19:04:17.153Z,21.80
2022-10-17T19:06:45.257Z,21.75
2022-10-17T19:09:14.471Z,21.71
2022-10-17T19:11:42.930Z,21.67
2022-10-17T19:14:13.526Z,21.66
2022-10-17T19:16:49.076Z,21.64
2022-10-17T19:19:24.308Z,21.61
2022-10-17T19:21:53.217Z,21.57
2022-10-17T19:24:26.924Z,21.56
2022-10-17T19:26:57.950Z,21.53
2022-10-17T19:29:31.197Z,21.51
2022-10-17T19:32:00.564Z,21.48
2022-10-17T19:34:28.618Z,21.47
2022-10-17T19:36:56.396Z,21.46
2022-10-17T19:39:25.199Z,21.42
2022-10-17T19:41:53.034Z,21.41
2022-10-17T19:44:20.835Z,21.38
2022-10-17T19:46:49.331Z,21.38
2022-10-17T19:49:18.009Z,21.35
2022-10-17T19:51:46.545Z,21.33
2022-10-17T19:54:16.547Z,21.30
2022-10-17T19:56:44.385Z,21.28
2022-10-17T19:59:15.012Z,21.24
2022-10-17T20:01:43.956Z,21.21
2022-10-17T20:04:13.204Z,21.18
2022-10-17T20:06:41.816Z,21.15
2022-10-17T20:09:15.710Z,21.12
2022-10-17T20:11:45.253Z,21.10
2022-10-17T20:14:13.179Z,21.08
2022-10-17T20:16:40.964Z,21.04
2022-10-17T20:19:11.969Z,21.00
2022-10-17T20:21:40.300Z,20.98
2022-10-17T20:24:14.311Z,20.95
2022-10-17T20:26:42.853Z,20.97
2022-10-17T20:29:20.838Z,20.97
2022-10-17T20:31:48.882Z,20.99
2022-10-17T20:34:19.462Z,21.00
2022-10-17T20:36:48.408Z,21.04
2022-10-17T20:39:18.768Z,21.08
2022-10-17T20:41:47.233Z,21.10
2022-10-17T20:44:15.475Z,21.13
2022-10-17T20:47:00.707Z,21.16
2022-10-17T20:49:30.568Z,21.19
2022-10-17T20:51:59.706Z,21.18
2022-10-17T20:54:28.612Z,21.17
2022-10-17T20:56:58.723Z,21.16
2022-10-17T20:59:29.071Z,21.18
2022-10-17T21:01:56.884Z,21.17
2022-10-17T21:04:45.541Z,21.17
2022-10-17T21:07:12.539Z,21.18
2022-10-17T21:09:40.421Z,21.13
2022-10-17T21:12:08.301Z,21.14
2022-10-17T21:14:36.469Z,21.13
2022-10-17T21:17:05.477Z,21.15
2022-10-17T21:19:34.054Z,21.18
2022-10-17T21:22:01.950Z,21.16
2022-10-17T21:24:30.565Z,21.18
2022-10-17T21:26:59.073Z,21.19
2022-10-17T21:29:27.144Z,21.19
2022-10-17T21:31:54.997Z,21.18
2022-10-17T21:34:25.128Z,21.17
2022-10-17T21:36:53.531Z,21.20
2022-10-17T21:39:22.932Z,21.23
2022-10-17T21:41:52.018Z,21.22
2022-10-17T21:44:26.470Z,21.23
2022-10-17T21:46:55.752Z,21.24
2022-10-17T21:49:25.745Z,21.22
2022-10-17T21:51:53.809Z,21.23
2022-10-17T21:54:25.824Z,21.19
2022-10-17T21:56:53.610Z,21.19
2022-10-17T21:59:21.403Z,21.19
2022-10-17T22:01:49.267Z,21.18
2022-10-17T22:04:19.671Z,21.18
2022-10-17T22:06:51.301Z,21.18
2022-10-17T22:09:25.677Z,21.19
2022-10-17T22:11:56.640Z,21.19
2022-10-17T22:14:26.639Z,21.20
2022-10-17T22:16:55.532Z,21.21
2022-10-17T22:19:26.528Z,21.22
2022-10-17T22:21:54.883Z,21.20
2022-10-17T22:24:23.370Z,21.19
2022-10-17T22:26:51.710Z,21.19
2022-10-17T22:29:20.279Z,21.18
2022-10-17T22:31:48.246Z,21.16
2022-10-17T22:34:17.917Z,21.16
2022-10-17T22:36:47.829Z,21.16
2022-10-17T22:39:15.868Z,21.13
2022-10-17T22:41:43.976Z,21.14
2022-10-17T22:44:11.800Z,21.11
2022-10-17T22:46:39.571Z,21.09
2022-10-17T22:49:07.390Z,21.04
2022-10-17T22:51:35.202Z,21.00
2022-10-17T22:54:03.081Z,20.98
2022-10-17T22:56:30.973Z,20.97
2022-10-17T22:58:58.820Z,20.99
2022-10-17T23:01:26.929Z,20.99
2022-10-17T23:03:54.990Z,20.99
2022-10-17T23:06:23.253Z,20.97
2022-10-17T23:08:51.437Z,20.98
2022-10-17T23:11:20.827Z,20.96
2022-10-17T23:13:49.140Z,20.95
2022-10-17T23:16:17.156Z,20.94
2022-10-17T23:18:45.350Z,20.93
2022-10-17T23:21:13.219Z,20.90
2022-10-17T23:23:41.028Z,20.90
2022-10-17T23:26:13.869Z,20.90
2022-10-17T23:28:42.992Z,20.88
2022-10-17T23:31:19.760Z,20.82
2022-10-17T23:33:49.766Z,20.81
2022-10-17T23:36:20.620Z,20.80
2022-10-17T23:38:49.155Z,20.81
2022-10-17T23:41:17.304Z,20.80
2022-10-17T23:43:45.235Z,20.80
2022-10-17T23:46:13.501Z,20.79
2022-10-17T23:48:41.912Z,20.76
2022-10-17T23:51:11.125Z,20.79
2022-10-17T23:53:40.463Z,20.76
2022-10-17T23:56:10.276Z,20.77
2022-10-17T23:58:39.468Z,20.77
